Terminal Aerodrome Forecast
Issued by NWS

Home | Current Version | Previous Version | Text Only | Print | Product List | Glossary On
Versions: 1 2 3 4 5 6 7 8 9 10 11 12 13 14 15 16 17 18 19 20 21 22 23 24 25 26 27 28 29 30 31 32 33 34 35 36 37 38
000
FTUS46 KOTX 181805 CCB
TAFPUW
TAF COR
KPUW 181805Z 1818/1918 16004KT 4SM -RA BR BKN015 OVC025
     FM182100 24007G14KT P6SM BKN035 OVC050
     FM190100 24005KT P6SM SCT035 BKN100
     FM190700 25007KT 5SM -RA BR BKN025 OVC040 PROB30 1909/1911
      -RASN OVC025
     FM191100 25007KT P6SM OVC020=

USA.gov is the U.S. government's official web portal to all federal, state and local government web resources and services.